sensor_id;sensor_type;location;lat;lon;timestamp;temperature;humidity
41395;DHT22;27136;53.810;8.886;2022-08-21T00:02:18;16.40;99.90
41395;DHT22;27136;53.810;8.886;2022-08-21T00:07:11;16.40;99.90
41395;DHT22;27136;53.810;8.886;2022-08-21T00:09:37;16.40;99.90
41395;DHT22;27136;53.810;8.886;2022-08-21T00:12:03;16.30;99.90
41395;DHT22;27136;53.810;8.886;2022-08-21T00:14:30;16.30;99.90
41395;DHT22;27136;53.810;8.886;2022-08-21T00:16:56;16.30;99.90
41395;DHT22;27136;53.810;8.886;2022-08-21T00:19:21;16.30;99.90
41395;DHT22;27136;53.810;8.886;2022-08-21T00:21:50;16.40;99.90
41395;DHT22;27136;53.810;8.886;2022-08-21T00:24:17;16.30;99.90
41395;DHT22;27136;53.810;8.886;2022-08-21T00:26:43;16.30;99.90
41395;DHT22;27136;53.810;8.886;2022-08-21T00:29:08;16.30;99.90
41395;DHT22;27136;53.810;8.886;2022-08-21T00:31:35;16.20;99.90
41395;DHT22;27136;53.810;8.886;2022-08-21T00:34:00;16.20;99.90
41395;DHT22;27136;53.810;8.886;2022-08-21T00:36:26;16.20;99.90
41395;DHT22;27136;53.810;8.886;2022-08-21T00:38:51;16.20;99.90
41395;DHT22;27136;53.810;8.886;2022-08-21T00:41:17;16.20;99.90
41395;DHT22;27136;53.810;8.886;2022-08-21T00:43:43;16.20;99.90
41395;DHT22;27136;53.810;8.886;2022-08-21T00:46:08;16.20;99.90
41395;DHT22;27136;53.810;8.886;2022-08-21T00:48:34;16.20;99.90
41395;DHT22;27136;53.810;8.886;2022-08-21T00:51:10;16.20;99.90
41395;DHT22;27136;53.810;8.886;2022-08-21T00:53:39;16.10;99.90
41395;DHT22;27136;53.810;8.886;2022-08-21T00:56:07;16.10;99.90
41395;DHT22;27136;53.810;8.886;2022-08-21T00:58:34;16.10;99.90
41395;DHT22;27136;53.810;8.886;2022-08-21T01:01:02;16.10;99.90
41395;DHT22;27136;53.810;8.886;2022-08-21T01:03:28;16.00;99.90
41395;DHT22;27136;53.810;8.886;2022-08-21T01:05:54;16.00;99.90
41395;DHT22;27136;53.810;8.886;2022-08-21T01:08:21;15.90;99.90
41395;DHT22;27136;53.810;8.886;2022-08-21T01:10:47;15.90;99.90
41395;DHT22;27136;53.810;8.886;2022-08-21T01:13:15;15.90;99.90
41395;DHT22;27136;53.810;8.886;2022-08-21T01:15:45;15.90;99.90
41395;DHT22;27136;53.810;8.886;2022-08-21T01:18:12;15.90;99.90
41395;DHT22;27136;53.810;8.886;2022-08-21T01:23:45;15.90;99.90
41395;DHT22;27136;53.810;8.886;2022-08-21T01:26:13;15.90;99.90
41395;DHT22;27136;53.810;8.886;2022-08-21T01:28:45;15.90;99.90
41395;DHT22;27136;53.810;8.886;2022-08-21T01:31:12;15.80;99.90
41395;DHT22;27136;53.810;8.886;2022-08-21T01:33:39;15.80;99.90
41395;DHT22;27136;53.810;8.886;2022-08-21T01:36:05;15.80;99.90
41395;DHT22;27136;53.810;8.886;2022-08-21T01:38:31;15.80;99.90
41395;DHT22;27136;53.810;8.886;2022-08-21T01:40:57;15.80;99.90
41395;DHT22;27136;53.810;8.886;2022-08-21T01:43:23;15.80;99.90
41395;DHT22;27136;53.810;8.886;2022-08-21T01:45:49;15.70;99.90
41395;DHT22;27136;53.810;8.886;2022-08-21T01:48:14;15.70;99.90
41395;DHT22;27136;53.810;8.886;2022-08-21T01:50:40;15.70;99.90
41395;DHT22;27136;53.810;8.886;2022-08-21T01:53:05;15.70;99.90
41395;DHT22;27136;53.810;8.886;2022-08-21T01:55:31;15.70;99.90
41395;DHT22;27136;53.810;8.886;2022-08-21T01:57:57;15.70;99.90
41395;DHT22;27136;53.810;8.886;2022-08-21T02:00:24;15.70;99.90
41395;DHT22;27136;53.810;8.886;2022-08-21T02:02:50;15.60;99.90
41395;DHT22;27136;53.810;8.886;2022-08-21T02:05:16;15.50;99.90
41395;DHT22;27136;53.810;8.886;2022-08-21T02:07:45;15.50;99.90
41395;DHT22;27136;53.810;8.886;2022-08-21T02:10:13;15.50;99.90
41395;DHT22;27136;53.810;8.886;2022-08-21T02:12:39;15.40;99.90
41395;DHT22;27136;53.810;8.886;2022-08-21T02:15:06;15.50;99.90
41395;DHT22;27136;53.810;8.886;2022-08-21T02:17:45;15.40;99.90
41395;DHT22;27136;53.810;8.886;2022-08-21T02:20:16;15.40;99.90
41395;DHT22;27136;53.810;8.886;2022-08-21T02:22:42;15.40;99.90
41395;DHT22;27136;53.810;8.886;2022-08-21T02:25:08;15.40;99.90
41395;DHT22;27136;53.810;8.886;2022-08-21T02:27:41;15.40;99.90
41395;DHT22;27136;53.810;8.886;2022-08-21T02:30:10;15.40;99.90
41395;DHT22;27136;53.810;8.886;2022-08-21T02:32:36;15.30;99.90
41395;DHT22;27136;53.810;8.886;2022-08-21T02:35:02;15.30;99.90
41395;DHT22;27136;53.810;8.886;2022-08-21T02:37:28;15.30;99.90
41395;DHT22;27136;53.810;8.886;2022-08-21T02:39:53;15.20;99.90
41395;DHT22;27136;53.810;8.886;2022-08-21T02:42:19;15.20;99.90
41395;DHT22;27136;53.810;8.886;2022-08-21T02:44:45;15.20;99.90
41395;DHT22;27136;53.810;8.886;2022-08-21T02:47:10;15.20;99.90
41395;DHT22;27136;53.810;8.886;2022-08-21T02:49:36;15.20;99.90
41395;DHT22;27136;53.810;8.886;2022-08-21T02:52:01;15.20;99.90
41395;DHT22;27136;53.810;8.886;2022-08-21T02:54:27;15.20;99.90
41395;DHT22;27136;53.810;8.886;2022-08-21T02:56:52;15.20;99.90
41395;DHT22;27136;53.810;8.886;2022-08-21T02:59:18;15.20;99.90
41395;DHT22;27136;53.810;8.886;2022-08-21T03:01:44;15.30;99.90
41395;DHT22;27136;53.810;8.886;2022-08-21T03:04:09;15.30;99.90
41395;DHT22;27136;53.810;8.886;2022-08-21T03:06:35;15.30;99.90
41395;DHT22;27136;53.810;8.886;2022-08-21T03:09:01;15.40;99.90
41395;DHT22;27136;53.810;8.886;2022-08-21T03:11:27;15.30;99.90
41395;DHT22;27136;53.810;8.886;2022-08-21T03:13:53;15.40;99.90
41395;DHT22;27136;53.810;8.886;2022-08-21T03:16:19;15.40;99.90
41395;DHT22;27136;53.810;8.886;2022-08-21T03:18:46;15.40;99.90
41395;DHT22;27136;53.810;8.886;2022-08-21T03:21:11;15.40;99.90
41395;DHT22;27136;53.810;8.886;2022-08-21T03:23:38;15.40;99.90
41395;DHT22;27136;53.810;8.886;2022-08-21T03:26:05;15.40;99.90
41395;DHT22;27136;53.810;8.886;2022-08-21T03:28:31;15.40;99.90
41395;DHT22;27136;53.810;8.886;2022-08-21T03:30:57;15.40;99.90
41395;DHT22;27136;53.810;8.886;2022-08-21T03:33:24;15.40;99.90
41395;DHT22;27136;53.810;8.886;2022-08-21T03:36:08;15.40;99.90
41395;DHT22;27136;53.810;8.886;2022-08-21T03:38:34;15.40;99.90
41395;DHT22;27136;53.810;8.886;2022-08-21T03:41:00;15.40;99.90
41395;DHT22;27136;53.810;8.886;2022-08-21T03:43:26;15.40;99.90
41395;DHT22;27136;53.810;8.886;2022-08-21T03:45:52;15.40;99.90
41395;DHT22;27136;53.810;8.886;2022-08-21T03:48:18;15.40;99.90
41395;DHT22;27136;53.810;8.886;2022-08-21T03:50:44;15.40;99.90
41395;DHT22;27136;53.810;8.886;2022-08-21T03:53:13;15.40;99.90
41395;DHT22;27136;53.810;8.886;2022-08-21T03:55:39;15.40;99.90
41395;DHT22;27136;53.810;8.886;2022-08-21T03:58:05;15.40;99.90
41395;DHT22;27136;53.810;8.886;2022-08-21T04:00:31;15.40;99.90
41395;DHT22;27136;53.810;8.886;2022-08-21T04:02:57;15.40;99.90
41395;DHT22;27136;53.810;8.886;2022-08-21T04:05:22;15.40;99.90
41395;DHT22;27136;53.810;8.886;2022-08-21T04:07:57;15.50;99.90
41395;DHT22;27136;53.810;8.886;2022-08-21T04:10:23;15.40;99.90
41395;DHT22;27136;53.810;8.886;2022-08-21T04:12:50;15.50;99.90
41395;DHT22;27136;53.810;8.886;2022-08-21T04:15:16;15.40;99.90
41395;DHT22;27136;53.810;8.886;2022-08-21T04:17:42;15.40;99.90
41395;DHT22;27136;53.810;8.886;2022-08-21T04:20:08;15.40;99.90
41395;DHT22;27136;53.810;8.886;2022-08-21T04:22:34;15.40;99.90
41395;DHT22;27136;53.810;8.886;2022-08-21T04:24:59;15.30;99.90
41395;DHT22;27136;53.810;8.886;2022-08-21T04:27:25;15.30;99.90
41395;DHT22;27136;53.810;8.886;2022-08-21T04:29:50;15.30;99.90
41395;DHT22;27136;53.810;8.886;2022-08-21T04:32:25;15.30;99.90
41395;DHT22;27136;53.810;8.886;2022-08-21T04:35:01;15.20;99.90
41395;DHT22;27136;53.810;8.886;2022-08-21T04:37:27;15.10;99.90
41395;DHT22;27136;53.810;8.886;2022-08-21T04:39:52;15.10;99.90
41395;DHT22;27136;53.810;8.886;2022-08-21T04:42:18;15.10;99.90
41395;DHT22;27136;53.810;8.886;2022-08-21T04:44:43;15.10;99.90
41395;DHT22;27136;53.810;8.886;2022-08-21T04:47:09;15.10;99.90
41395;DHT22;27136;53.810;8.886;2022-08-21T04:49:34;15.20;99.90
41395;DHT22;27136;53.810;8.886;2022-08-21T04:52:00;15.10;99.90
41395;DHT22;27136;53.810;8.886;2022-08-21T04:54:26;15.10;99.90
41395;DHT22;27136;53.810;8.886;2022-08-21T04:57:11;15.10;99.90
41395;DHT22;27136;53.810;8.886;2022-08-21T04:59:44;15.10;99.90
41395;DHT22;27136;53.810;8.886;2022-08-21T05:02:11;15.10;99.90
41395;DHT22;27136;53.810;8.886;2022-08-21T05:04:43;15.10;99.90
41395;DHT22;27136;53.810;8.886;2022-08-21T05:07:15;15.10;99.90
41395;DHT22;27136;53.810;8.886;2022-08-21T05:09:41;15.10;99.90
41395;DHT22;27136;53.810;8.886;2022-08-21T05:12:08;15.10;99.90
41395;DHT22;27136;53.810;8.886;2022-08-21T05:14:33;15.10;99.90
41395;DHT22;27136;53.810;8.886;2022-08-21T05:16:59;15.10;99.90
41395;DHT22;27136;53.810;8.886;2022-08-21T05:19:24;15.10;99.90
41395;DHT22;27136;53.810;8.886;2022-08-21T05:21:51;15.10;99.90
41395;DHT22;27136;53.810;8.886;2022-08-21T05:24:17;15.10;99.90
41395;DHT22;27136;53.810;8.886;2022-08-21T05:26:43;15.20;99.90
41395;DHT22;27136;53.810;8.886;2022-08-21T05:29:10;15.20;99.90
41395;DHT22;27136;53.810;8.886;2022-08-21T05:31:37;15.20;99.90
41395;DHT22;27136;53.810;8.886;2022-08-21T05:34:03;15.20;99.90
41395;DHT22;27136;53.810;8.886;2022-08-21T05:36:29;15.30;99.90
41395;DHT22;27136;53.810;8.886;2022-08-21T05:38:54;15.30;99.90
41395;DHT22;27136;53.810;8.886;2022-08-21T05:41:20;15.30;99.90
41395;DHT22;27136;53.810;8.886;2022-08-21T05:43:46;15.30;99.90
41395;DHT22;27136;53.810;8.886;2022-08-21T05:46:11;15.30;99.90
41395;DHT22;27136;53.810;8.886;2022-08-21T05:48:37;15.40;99.90
41395;DHT22;27136;53.810;8.886;2022-08-21T05:51:08;15.40;99.90
41395;DHT22;27136;53.810;8.886;2022-08-21T05:53:34;15.50;99.90
41395;DHT22;27136;53.810;8.886;2022-08-21T05:56:00;15.50;99.90
41395;DHT22;27136;53.810;8.886;2022-08-21T05:58:29;15.50;99.90
41395;DHT22;27136;53.810;8.886;2022-08-21T06:00:55;15.60;99.90
41395;DHT22;27136;53.810;8.886;2022-08-21T06:03:34;15.60;99.90
41395;DHT22;27136;53.810;8.886;2022-08-21T06:06:01;15.60;99.90
41395;DHT22;27136;53.810;8.886;2022-08-21T06:08:27;15.70;99.90
41395;DHT22;27136;53.810;8.886;2022-08-21T06:10:55;15.70;99.90
41395;DHT22;27136;53.810;8.886;2022-08-21T06:13:21;15.80;99.90
41395;DHT22;27136;53.810;8.886;2022-08-21T06:15:47;15.80;99.90
41395;DHT22;27136;53.810;8.886;2022-08-21T06:18:13;15.80;99.90
41395;DHT22;27136;53.810;8.886;2022-08-21T06:20:39;15.90;99.90
41395;DHT22;27136;53.810;8.886;2022-08-21T06:23:05;15.90;99.90
41395;DHT22;27136;53.810;8.886;2022-08-21T06:25:30;16.00;99.90
41395;DHT22;27136;53.810;8.886;2022-08-21T06:28:10;16.00;99.90
41395;DHT22;27136;53.810;8.886;2022-08-21T06:30:37;16.10;99.90
41395;DHT22;27136;53.810;8.886;2022-08-21T06:33:04;16.10;99.90
41395;DHT22;27136;53.810;8.886;2022-08-21T06:35:30;16.20;99.90
41395;DHT22;27136;53.810;8.886;2022-08-21T06:37:56;16.20;99.90
41395;DHT22;27136;53.810;8.886;2022-08-21T06:40:23;16.30;99.90
41395;DHT22;27136;53.810;8.886;2022-08-21T06:42:48;16.30;99.90
41395;DHT22;27136;53.810;8.886;2022-08-21T06:45:14;16.40;99.90
41395;DHT22;27136;53.810;8.886;2022-08-21T06:47:40;16.40;99.90
41395;DHT22;27136;53.810;8.886;2022-08-21T06:50:06;16.50;99.90
41395;DHT22;27136;53.810;8.886;2022-08-21T06:52:36;16.60;99.90
41395;DHT22;27136;53.810;8.886;2022-08-21T06:55:05;16.60;99.90
41395;DHT22;27136;53.810;8.886;2022-08-21T06:57:31;16.70;99.90
41395;DHT22;27136;53.810;8.886;2022-08-21T06:59:56;16.70;99.90
41395;DHT22;27136;53.810;8.886;2022-08-21T07:02:22;16.80;99.90
41395;DHT22;27136;53.810;8.886;2022-08-21T07:04:47;16.80;99.90
41395;DHT22;27136;53.810;8.886;2022-08-21T07:07:13;16.80;99.90
41395;DHT22;27136;53.810;8.886;2022-08-21T07:09:39;16.90;99.90
41395;DHT22;27136;53.810;8.886;2022-08-21T07:12:05;17.00;99.90
41395;DHT22;27136;53.810;8.886;2022-08-21T07:14:30;17.00;99.90
41395;DHT22;27136;53.810;8.886;2022-08-21T07:16:56;17.10;99.90
41395;DHT22;27136;53.810;8.886;2022-08-21T07:19:21;17.20;99.90
41395;DHT22;27136;53.810;8.886;2022-08-21T07:21:47;17.20;99.90
41395;DHT22;27136;53.810;8.886;2022-08-21T07:24:13;17.30;99.90
41395;DHT22;27136;53.810;8.886;2022-08-21T07:26:39;17.40;99.90
41395;DHT22;27136;53.810;8.886;2022-08-21T07:29:05;17.40;99.90
41395;DHT22;27136;53.810;8.886;2022-08-21T07:31:31;17.50;99.90
41395;DHT22;27136;53.810;8.886;2022-08-21T07:33:56;17.60;99.90
41395;DHT22;27136;53.810;8.886;2022-08-21T07:36:23;17.70;99.90
41395;DHT22;27136;53.810;8.886;2022-08-21T07:38:48;17.70;99.90
41395;DHT22;27136;53.810;8.886;2022-08-21T07:41:25;17.80;99.90
41395;DHT22;27136;53.810;8.886;2022-08-21T07:43:52;17.90;99.90
41395;DHT22;27136;53.810;8.886;2022-08-21T07:46:18;18.00;99.90
41395;DHT22;27136;53.810;8.886;2022-08-21T07:48:43;18.00;99.90
41395;DHT22;27136;53.810;8.886;2022-08-21T07:51:13;18.10;99.90
41395;DHT22;27136;53.810;8.886;2022-08-21T07:53:39;18.20;99.90
41395;DHT22;27136;53.810;8.886;2022-08-21T07:56:06;18.30;99.90
41395;DHT22;27136;53.810;8.886;2022-08-21T07:58:33;18.40;99.90
41395;DHT22;27136;53.810;8.886;2022-08-21T08:00:59;18.40;99.90
41395;DHT22;27136;53.810;8.886;2022-08-21T08:03:25;18.50;99.90
41395;DHT22;27136;53.810;8.886;2022-08-21T08:05:50;18.50;99.90
41395;DHT22;27136;53.810;8.886;2022-08-21T08:08:16;18.60;99.90
41395;DHT22;27136;53.810;8.886;2022-08-21T08:10:42;18.60;99.90
41395;DHT22;27136;53.810;8.886;2022-08-21T08:13:08;18.70;99.90
41395;DHT22;27136;53.810;8.886;2022-08-21T08:15:35;18.70;99.90
41395;DHT22;27136;53.810;8.886;2022-08-21T08:18:01;18.80;99.90
41395;DHT22;27136;53.810;8.886;2022-08-21T08:20:26;18.80;99.90
41395;DHT22;27136;53.810;8.886;2022-08-21T08:22:53;18.90;99.90
41395;DHT22;27136;53.810;8.886;2022-08-21T08:25:20;18.90;99.90
41395;DHT22;27136;53.810;8.886;2022-08-21T08:27:46;19.00;99.90
41395;DHT22;27136;53.810;8.886;2022-08-21T08:30:13;19.10;99.90
41395;DHT22;27136;53.810;8.886;2022-08-21T08:32:39;19.20;99.90
41395;DHT22;27136;53.810;8.886;2022-08-21T08:35:06;19.20;99.90
41395;DHT22;27136;53.810;8.886;2022-08-21T08:37:32;19.30;99.90
41395;DHT22;27136;53.810;8.886;2022-08-21T08:39:59;19.30;99.90
41395;DHT22;27136;53.810;8.886;2022-08-21T08:42:29;19.40;99.90
41395;DHT22;27136;53.810;8.886;2022-08-21T08:45:17;19.40;99.90
41395;DHT22;27136;53.810;8.886;2022-08-21T08:47:53;19.50;99.90
41395;DHT22;27136;53.810;8.886;2022-08-21T08:53:30;19.60;99.90
41395;DHT22;27136;53.810;8.886;2022-08-21T08:55:57;19.70;99.90
41395;DHT22;27136;53.810;8.886;2022-08-21T08:58:31;19.70;99.90
41395;DHT22;27136;53.810;8.886;2022-08-21T09:00:59;19.70;99.90
41395;DHT22;27136;53.810;8.886;2022-08-21T09:03:26;19.80;99.90
41395;DHT22;27136;53.810;8.886;2022-08-21T09:08:52;19.90;99.90
41395;DHT22;27136;53.810;8.886;2022-08-21T09:11:41;19.90;99.90
41395;DHT22;27136;53.810;8.886;2022-08-21T09:17:44;20.10;99.90
41395;DHT22;27136;53.810;8.886;2022-08-21T09:21:03;20.20;99.90
41395;DHT22;27136;53.810;8.886;2022-08-21T09:28:56;20.30;99.90
41395;DHT22;27136;53.810;8.886;2022-08-21T09:31:26;20.40;99.90
41395;DHT22;27136;53.810;8.886;2022-08-21T09:34:04;20.50;99.90
41395;DHT22;27136;53.810;8.886;2022-08-21T09:36:49;20.50;99.90
41395;DHT22;27136;53.810;8.886;2022-08-21T09:42:01;20.70;99.90
41395;DHT22;27136;53.810;8.886;2022-08-21T09:44:30;20.70;99.90
41395;DHT22;27136;53.810;8.886;2022-08-21T09:46:57;20.80;99.90
41395;DHT22;27136;53.810;8.886;2022-08-21T09:49:34;20.90;99.90
41395;DHT22;27136;53.810;8.886;2022-08-21T09:52:02;20.90;99.90
41395;DHT22;27136;53.810;8.886;2022-08-21T09:54:37;21.00;99.90
41395;DHT22;27136;53.810;8.886;2022-08-21T09:59:54;21.10;99.90
41395;DHT22;27136;53.810;8.886;2022-08-21T10:02:32;21.20;99.90
41395;DHT22;27136;53.810;8.886;2022-08-21T10:05:15;21.20;99.90
41395;DHT22;27136;53.810;8.886;2022-08-21T10:07:41;21.20;99.90
41395;DHT22;27136;53.810;8.886;2022-08-21T10:10:25;21.30;99.90
41395;DHT22;27136;53.810;8.886;2022-08-21T10:13:11;21.40;99.90
41395;DHT22;27136;53.810;8.886;2022-08-21T10:16:13;21.50;99.90
41395;DHT22;27136;53.810;8.886;2022-08-21T10:18:45;21.50;99.90
41395;DHT22;27136;53.810;8.886;2022-08-21T10:21:31;21.50;99.90
41395;DHT22;27136;53.810;8.886;2022-08-21T10:24:18;21.60;99.90
41395;DHT22;27136;53.810;8.886;2022-08-21T10:29:38;21.80;99.90
41395;DHT22;27136;53.810;8.886;2022-08-21T10:32:25;21.90;99.90
41395;DHT22;27136;53.810;8.886;2022-08-21T10:35:13;21.90;99.90
41395;DHT22;27136;53.810;8.886;2022-08-21T10:45:52;22.30;99.90
41395;DHT22;27136;53.810;8.886;2022-08-21T10:48:36;22.40;99.90
41395;DHT22;27136;53.810;8.886;2022-08-21T10:53:59;22.40;99.90
41395;DHT22;27136;53.810;8.886;2022-08-21T10:56:34;22.50;99.90
41395;DHT22;27136;53.810;8.886;2022-08-21T11:04:55;22.60;99.90
41395;DHT22;27136;53.810;8.886;2022-08-21T11:07:30;22.60;99.90
41395;DHT22;27136;53.810;8.886;2022-08-21T11:10:01;22.80;99.90
41395;DHT22;27136;53.810;8.886;2022-08-21T11:12:47;22.80;99.90
41395;DHT22;27136;53.810;8.886;2022-08-21T11:15:29;22.80;99.90
41395;DHT22;27136;53.810;8.886;2022-08-21T11:18:02;22.90;99.90
41395;DHT22;27136;53.810;8.886;2022-08-21T11:23:10;23.00;99.90
41395;DHT22;27136;53.810;8.886;2022-08-21T11:25:41;23.00;99.90
41395;DHT22;27136;53.810;8.886;2022-08-21T11:28:31;23.10;99.90
41395;DHT22;27136;53.810;8.886;2022-08-21T11:36:33;23.10;99.90
41395;DHT22;27136;53.810;8.886;2022-08-21T11:42:14;23.30;99.90
41395;DHT22;27136;53.810;8.886;2022-08-21T11:47:48;23.70;99.90
41395;DHT22;27136;53.810;8.886;2022-08-21T11:50:18;23.90;99.90
41395;DHT22;27136;53.810;8.886;2022-08-21T11:55:32;24.10;99.90
41395;DHT22;27136;53.810;8.886;2022-08-21T11:58:08;24.10;99.90
41395;DHT22;27136;53.810;8.886;2022-08-21T12:00:43;24.10;99.90
41395;DHT22;27136;53.810;8.886;2022-08-21T12:03:21;24.10;99.90
41395;DHT22;27136;53.810;8.886;2022-08-21T12:05:57;24.00;99.80
41395;DHT22;27136;53.810;8.886;2022-08-21T12:08:32;24.20;99.90
41395;DHT22;27136;53.810;8.886;2022-08-21T12:11:08;24.30;99.90
41395;DHT22;27136;53.810;8.886;2022-08-21T12:13:38;24.40;99.90
41395;DHT22;27136;53.810;8.886;2022-08-21T12:16:15;24.30;99.90
41395;DHT22;27136;53.810;8.886;2022-08-21T12:18:42;24.30;99.90
41395;DHT22;27136;53.810;8.886;2022-08-21T12:21:22;24.50;99.90
41395;DHT22;27136;53.810;8.886;2022-08-21T12:26:36;24.40;99.90
41395;DHT22;27136;53.810;8.886;2022-08-21T12:29:36;24.40;99.70
41395;DHT22;27136;53.810;8.886;2022-08-21T12:32:27;24.40;99.70
41395;DHT22;27136;53.810;8.886;2022-08-21T12:35:05;24.40;99.10
41395;DHT22;27136;53.810;8.886;2022-08-21T12:37:41;24.50;99.80
41395;DHT22;27136;53.810;8.886;2022-08-21T12:40:18;24.50;99.90
41395;DHT22;27136;53.810;8.886;2022-08-21T12:42:49;24.80;99.90
41395;DHT22;27136;53.810;8.886;2022-08-21T12:45:32;25.00;99.60
41395;DHT22;27136;53.810;8.886;2022-08-21T12:50:32;24.80;99.20
41395;DHT22;27136;53.810;8.886;2022-08-21T12:53:02;25.00;99.90
41395;DHT22;27136;53.810;8.886;2022-08-21T12:55:32;24.90;99.90
41395;DHT22;27136;53.810;8.886;2022-08-21T12:57:59;25.00;99.80
41395;DHT22;27136;53.810;8.886;2022-08-21T13:00:26;25.20;99.90
41395;DHT22;27136;53.810;8.886;2022-08-21T13:02:53;25.30;99.90
41395;DHT22;27136;53.810;8.886;2022-08-21T13:05:32;25.40;99.10
41395;DHT22;27136;53.810;8.886;2022-08-21T13:07:59;25.40;99.90
41395;DHT22;27136;53.810;8.886;2022-08-21T13:10:30;25.30;98.60
41395;DHT22;27136;53.810;8.886;2022-08-21T13:12:59;25.50;98.50
41395;DHT22;27136;53.810;8.886;2022-08-21T13:15:30;25.30;98.80
41395;DHT22;27136;53.810;8.886;2022-08-21T13:17:56;25.40;98.60
41395;DHT22;27136;53.810;8.886;2022-08-21T13:20:36;25.50;98.80
41395;DHT22;27136;53.810;8.886;2022-08-21T13:23:15;25.60;99.20
41395;DHT22;27136;53.810;8.886;2022-08-21T13:25:43;25.40;98.70
41395;DHT22;27136;53.810;8.886;2022-08-21T13:28:11;25.50;99.90
41395;DHT22;27136;53.810;8.886;2022-08-21T13:30:46;25.50;98.00
41395;DHT22;27136;53.810;8.886;2022-08-21T13:33:14;25.60;98.20
41395;DHT22;27136;53.810;8.886;2022-08-21T13:35:52;25.60;96.60
41395;DHT22;27136;53.810;8.886;2022-08-21T13:38:27;25.70;97.30
41395;DHT22;27136;53.810;8.886;2022-08-21T13:40:56;25.80;97.30
41395;DHT22;27136;53.810;8.886;2022-08-21T13:43:27;25.70;98.20
41395;DHT22;27136;53.810;8.886;2022-08-21T13:45:55;25.90;98.80
41395;DHT22;27136;53.810;8.886;2022-08-21T13:48:26;26.30;98.70
41395;DHT22;27136;53.810;8.886;2022-08-21T13:50:54;26.50;97.70
41395;DHT22;27136;53.810;8.886;2022-08-21T13:55:50;26.60;97.00
41395;DHT22;27136;53.810;8.886;2022-08-21T13:58:26;26.70;96.90
41395;DHT22;27136;53.810;8.886;2022-08-21T14:00:53;26.50;97.90
41395;DHT22;27136;53.810;8.886;2022-08-21T14:03:32;26.40;96.30
41395;DHT22;27136;53.810;8.886;2022-08-21T14:05:58;26.10;96.50
41395;DHT22;27136;53.810;8.886;2022-08-21T14:08:32;26.10;97.30
41395;DHT22;27136;53.810;8.886;2022-08-21T14:10:59;26.00;96.20
41395;DHT22;27136;53.810;8.886;2022-08-21T14:16:18;26.00;98.20
41395;DHT22;27136;53.810;8.886;2022-08-21T14:18:54;25.90;98.30
41395;DHT22;27136;53.810;8.886;2022-08-21T14:21:39;25.60;99.40
41395;DHT22;27136;53.810;8.886;2022-08-21T14:24:09;25.70;99.90
41395;DHT22;27136;53.810;8.886;2022-08-21T14:26:52;25.60;98.90
41395;DHT22;27136;53.810;8.886;2022-08-21T14:29:21;25.70;99.90
41395;DHT22;27136;53.810;8.886;2022-08-21T14:31:56;25.80;99.90
41395;DHT22;27136;53.810;8.886;2022-08-21T14:34:25;25.20;99.90
41395;DHT22;27136;53.810;8.886;2022-08-21T14:36:52;25.10;99.90
41395;DHT22;27136;53.810;8.886;2022-08-21T14:39:18;24.80;99.90
41395;DHT22;27136;53.810;8.886;2022-08-21T14:41:44;24.70;99.90
41395;DHT22;27136;53.810;8.886;2022-08-21T14:44:12;24.60;99.90
41395;DHT22;27136;53.810;8.886;2022-08-21T14:46:38;24.60;99.90
41395;DHT22;27136;53.810;8.886;2022-08-21T14:49:04;24.50;99.90
41395;DHT22;27136;53.810;8.886;2022-08-21T14:51:30;24.20;99.90
41395;DHT22;27136;53.810;8.886;2022-08-21T14:53:55;24.10;99.90
41395;DHT22;27136;53.810;8.886;2022-08-21T14:56:21;24.00;99.90
41395;DHT22;27136;53.810;8.886;2022-08-21T14:58:49;23.90;99.90
41395;DHT22;27136;53.810;8.886;2022-08-21T15:01:17;24.00;99.90
41395;DHT22;27136;53.810;8.886;2022-08-21T15:03:44;23.90;99.90
41395;DHT22;27136;53.810;8.886;2022-08-21T15:06:11;23.70;99.90
41395;DHT22;27136;53.810;8.886;2022-08-21T15:08:37;23.80;99.90
41395;DHT22;27136;53.810;8.886;2022-08-21T15:11:04;23.60;99.90
41395;DHT22;27136;53.810;8.886;2022-08-21T15:13:30;23.60;99.90
41395;DHT22;27136;53.810;8.886;2022-08-21T15:15:56;23.60;99.90
41395;DHT22;27136;53.810;8.886;2022-08-21T15:18:24;23.70;99.90
41395;DHT22;27136;53.810;8.886;2022-08-21T15:20:50;23.70;99.90
41395;DHT22;27136;53.810;8.886;2022-08-21T15:23:16;23.80;99.90
41395;DHT22;27136;53.810;8.886;2022-08-21T15:25:43;23.70;99.90
41395;DHT22;27136;53.810;8.886;2022-08-21T15:28:09;23.60;99.90
41395;DHT22;27136;53.810;8.886;2022-08-21T15:30:36;23.50;99.90
41395;DHT22;27136;53.810;8.886;2022-08-21T15:33:02;23.50;99.90
41395;DHT22;27136;53.810;8.886;2022-08-21T15:35:27;23.40;99.90
41395;DHT22;27136;53.810;8.886;2022-08-21T15:37:53;23.40;99.90
41395;DHT22;27136;53.810;8.886;2022-08-21T15:40:18;23.20;99.90
41395;DHT22;27136;53.810;8.886;2022-08-21T15:42:44;23.10;99.90
41395;DHT22;27136;53.810;8.886;2022-08-21T15:45:11;23.20;99.90
41395;DHT22;27136;53.810;8.886;2022-08-21T15:47:39;23.20;99.90
41395;DHT22;27136;53.810;8.886;2022-08-21T15:50:08;23.10;99.90
41395;DHT22;27136;53.810;8.886;2022-08-21T15:52:34;23.10;99.90
41395;DHT22;27136;53.810;8.886;2022-08-21T15:54:59;22.90;99.90
41395;DHT22;27136;53.810;8.886;2022-08-21T15:57:26;22.90;99.90
41395;DHT22;27136;53.810;8.886;2022-08-21T15:59:55;23.00;99.90
41395;DHT22;27136;53.810;8.886;2022-08-21T16:02:24;23.00;99.90
41395;DHT22;27136;53.810;8.886;2022-08-21T16:04:51;23.00;99.90
41395;DHT22;27136;53.810;8.886;2022-08-21T16:07:16;23.00;99.90
41395;DHT22;27136;53.810;8.886;2022-08-21T16:09:42;22.90;99.90
41395;DHT22;27136;53.810;8.886;2022-08-21T16:12:11;23.00;99.90
41395;DHT22;27136;53.810;8.886;2022-08-21T16:14:39;22.90;99.90
41395;DHT22;27136;53.810;8.886;2022-08-21T16:17:06;22.80;99.90
41395;DHT22;27136;53.810;8.886;2022-08-21T16:19:32;22.80;99.90
41395;DHT22;27136;53.810;8.886;2022-08-21T16:21:58;22.70;99.90
41395;DHT22;27136;53.810;8.886;2022-08-21T16:24:23;22.80;99.90
41395;DHT22;27136;53.810;8.886;2022-08-21T16:26:49;22.80;99.90
41395;DHT22;27136;53.810;8.886;2022-08-21T16:29:15;22.70;99.90
41395;DHT22;27136;53.810;8.886;2022-08-21T16:31:41;22.70;99.90
41395;DHT22;27136;53.810;8.886;2022-08-21T16:34:07;22.60;99.90
41395;DHT22;27136;53.810;8.886;2022-08-21T16:36:36;22.60;99.90
41395;DHT22;27136;53.810;8.886;2022-08-21T16:39:02;22.50;99.90
41395;DHT22;27136;53.810;8.886;2022-08-21T16:41:32;22.60;99.90
41395;DHT22;27136;53.810;8.886;2022-08-21T16:43:59;22.50;99.90
41395;DHT22;27136;53.810;8.886;2022-08-21T16:46:26;22.50;99.90
41395;DHT22;27136;53.810;8.886;2022-08-21T16:48:52;22.50;99.90
41395;DHT22;27136;53.810;8.886;2022-08-21T16:51:18;22.40;99.90
41395;DHT22;27136;53.810;8.886;2022-08-21T16:53:44;22.40;99.90
41395;DHT22;27136;53.810;8.886;2022-08-21T16:56:12;22.30;99.90